Terminal Aerodrome Forecast
Issued by NWS King Salmon, AK

Home | Current Version | Previous Version | Text Only | Print | Product List | Glossary On
Versions: 1 2 3 4 5 6 7 8 9 10 11 12 13 14 15
000
FTAK31 PANC 200528
TAFAKN
TAF
PAKN 200528Z 2006/2106 02004KT P6SM SCT040
     FM202100 36012G17KT P6SM -SHRA OVC025
     FM210200 36011KT P6SM -RA OVC035=

USA.gov is the U.S. government's official web portal to all federal, state and local government web resources and services.